Time;durP1;ratioP1;P1;durP2;ratioP2;P2;SDS_P1;SDS_P2;PMS_P1;PMS_P2;Temp;Humidity;BMP_temperature;BMP_pressure;BME280_temperature;BME280_humidity;BME280_pressure;Samples;Min_cycle;Max_cycle;Signal;HPM_P1;HPM_P2
2021/05/23 00:00:24;;;;;;;6.47;5.60;;;;;;;;;;5055196;28;20262;-83
2021/05/23 00:02:49;;;;;;;9.70;6.47;;;;;;;;;;5055476;28;20160;-83
2021/05/23 00:05:17;;;;;;;8.83;6.10;;;;;;;;;;5055803;28;20267;-83
2021/05/23 00:07:47;;;;;;;7.03;6.07;;;;;;;;;;5055249;28;20176;-83
2021/05/23 00:10:13;;;;;;;6.43;5.03;;;;;;;;;;5055371;28;20164;-83
2021/05/23 00:12:38;;;;;;;7.27;4.90;;;;;;;;;;5055820;28;20194;-83
2021/05/23 00:15:05;;;;;;;8.90;5.47;;;;;;;;;;5054803;28;20596;-83
2021/05/23 00:17:30;;;;;;;11.33;5.57;;;;;;;;;;5055237;28;20199;-83
2021/05/23 00:19:56;;;;;;;6.40;5.27;;;;;;;;;;5054850;28;20176;-83
2021/05/23 00:22:21;;;;;;;7.57;5.47;;;;;;;;;;5054990;28;20262;-83
2021/05/23 00:24:46;;;;;;;9.67;5.57;;;;;;;;;;5054710;28;20502;-83
2021/05/23 00:27:11;;;;;;;7.17;5.40;;;;;;;;;;5053349;28;20633;-83
2021/05/23 00:29:37;;;;;;;5.93;5.13;;;;;;;;;;5054043;28;20263;-83
2021/05/23 00:32:03;;;;;;;6.27;5.20;;;;;;;;;;5055155;28;20262;-83
2021/05/23 00:34:28;;;;;;;7.37;5.30;;;;;;;;;;5054601;28;20615;-83
2021/05/23 00:36:54;;;;;;;6.97;5.40;;;;;;;;;;5054387;28;20211;-83
2021/05/23 00:39:19;;;;;;;5.93;5.20;;;;;;;;;;5054443;28;20183;-83
2021/05/23 00:41:45;;;;;;;7.40;5.43;;;;;;;;;;5054368;28;20168;-82
2021/05/23 00:44:10;;;;;;;7.07;5.30;;;;;;;;;;5054120;28;20313;-82
2021/05/23 00:46:35;;;;;;;7.50;5.20;;;;;;;;;;5054276;28;20214;-82
2021/05/23 00:49:01;;;;;;;6.40;4.87;;;;;;;;;;5054181;28;20172;-82
2021/05/23 00:51:26;;;;;;;7.03;5.17;;;;;;;;;;5054207;28;20172;-82
2021/05/23 00:53:51;;;;;;;5.63;4.87;;;;;;;;;;5054543;28;20190;-82
2021/05/23 00:56:18;;;;;;;6.10;5.10;;;;;;;;;;5054643;28;20282;-82
2021/05/23 00:58:44;;;;;;;7.13;5.00;;;;;;;;;;5053573;28;20171;-82
2021/05/23 01:01:14;;;;;;;6.00;5.07;;;;;;;;;;5053843;28;20578;-82
2021/05/23 01:03:48;;;;;;;6.83;5.40;;;;;;;;;;5054194;28;20218;-82
2021/05/23 01:06:14;;;;;;;5.70;5.00;;;;;;;;;;5053774;28;20170;-82
2021/05/23 01:08:39;;;;;;;6.27;4.70;;;;;;;;;;5054017;28;20167;-82
2021/05/23 01:11:04;;;;;;;5.33;4.27;;;;;;;;;;5053984;28;20222;-83
2021/05/23 01:13:36;;;;;;;5.50;4.40;;;;;;;;;;5054724;28;20187;-82
2021/05/23 01:16:03;;;;;;;5.30;4.37;;;;;;;;;;5053777;28;20237;-83
2021/05/23 01:18:36;;;;;;;6.90;4.93;;;;;;;;;;5053971;28;20179;-83
2021/05/23 01:21:03;;;;;;;6.57;4.67;;;;;;;;;;5054706;28;20176;-83
2021/05/23 01:23:30;;;;;;;8.00;4.83;;;;;;;;;;5054163;28;20199;-82
2021/05/23 01:26:07;;;;;;;7.40;4.50;;;;;;;;;;5053734;28;20172;-83
2021/05/23 01:28:35;;;;;;;5.47;4.60;;;;;;;;;;5052559;28;20230;-83
2021/05/23 01:31:03;;;;;;;5.67;4.73;;;;;;;;;;5053638;28;20219;-83
2021/05/23 01:33:28;;;;;;;5.37;4.30;;;;;;;;;;5053701;28;20652;-83
2021/05/23 01:35:56;;;;;;;5.20;4.70;;;;;;;;;;5053413;28;20199;-83
2021/05/23 01:38:21;;;;;;;5.20;4.40;;;;;;;;;;5053746;28;20713;-83
2021/05/23 01:40:48;;;;;;;8.30;4.63;;;;;;;;;;5053594;28;20168;-83
2021/05/23 01:43:13;;;;;;;6.10;4.70;;;;;;;;;;5053980;28;20576;-83
2021/05/23 01:45:39;;;;;;;6.17;4.10;;;;;;;;;;5053674;28;20175;-83
2021/05/23 01:48:05;;;;;;;5.67;4.07;;;;;;;;;;5053889;28;20176;-83
2021/05/23 01:50:31;;;;;;;6.07;4.20;;;;;;;;;;5053513;28;20250;-83
2021/05/23 01:52:58;;;;;;;4.83;4.43;;;;;;;;;;5053516;28;20647;-83
2021/05/23 01:55:24;;;;;;;6.60;4.50;;;;;;;;;;5053613;28;20551;-83
2021/05/23 01:57:50;;;;;;;6.20;4.30;;;;;;;;;;5053610;28;20172;-83
2021/05/23 02:00:17;;;;;;;5.37;4.27;;;;;;;;;;5053828;28;20183;-84
2021/05/23 02:02:42;;;;;;;5.97;4.17;;;;;;;;;;5053516;28;20210;-84
2021/05/23 02:05:08;;;;;;;5.83;4.00;;;;;;;;;;5053466;28;20171;-83
2021/05/23 02:07:34;;;;;;;4.93;3.97;;;;;;;;;;5053297;28;20175;-83
2021/05/23 02:09:59;;;;;;;7.00;4.20;;;;;;;;;;5053991;28;20175;-84
2021/05/23 02:12:25;;;;;;;4.43;3.80;;;;;;;;;;5057344;28;20198;-83
2021/05/23 02:14:50;;;;;;;4.97;3.80;;;;;;;;;;5057104;28;20168;-83
2021/05/23 02:17:15;;;;;;;5.60;4.03;;;;;;;;;;5057511;28;20195;-83
2021/05/23 02:19:45;;;;;;;4.67;3.77;;;;;;;;;;5057772;28;20202;-83
2021/05/23 02:22:10;;;;;;;4.43;3.90;;;;;;;;;;5057226;28;20203;-83
2021/05/23 02:24:36;;;;;;;5.70;3.90;;;;;;;;;;5057138;28;20675;-83
2021/05/23 02:27:01;;;;;;;5.13;3.73;;;;;;;;;;5056765;28;20198;-83
2021/05/23 02:29:26;;;;;;;3.97;3.57;;;;;;;;;;5056993;28;20164;-84
2021/05/23 02:31:51;;;;;;;6.47;3.63;;;;;;;;;;5056626;28;20306;-83
2021/05/23 02:34:17;;;;;;;4.30;3.57;;;;;;;;;;5056739;28;20572;-83
2021/05/23 02:36:42;;;;;;;4.90;4.03;;;;;;;;;;5057155;28;20196;-83
2021/05/23 02:39:07;;;;;;;4.70;4.20;;;;;;;;;;5056511;28;20176;-84
2021/05/23 02:41:33;;;;;;;6.00;4.00;;;;;;;;;;5056972;28;20171;-84
2021/05/23 02:43:58;;;;;;;8.83;4.13;;;;;;;;;;5056379;28;20250;-83
2021/05/23 02:46:24;;;;;;;7.00;4.37;;;;;;;;;;5057207;28;20212;-83
2021/05/23 02:48:49;;;;;;;5.47;4.50;;;;;;;;;;5056547;28;20523;-83
2021/05/23 02:51:14;;;;;;;6.10;4.50;;;;;;;;;;5056540;28;20178;-83
2021/05/23 02:53:40;;;;;;;6.80;4.37;;;;;;;;;;5056723;28;20576;-83
2021/05/23 02:56:05;;;;;;;7.23;3.97;;;;;;;;;;5056525;28;20607;-83
2021/05/23 02:58:30;;;;;;;7.30;4.73;;;;;;;;;;5056331;28;20668;-83
2021/05/23 03:00:56;;;;;;;6.37;4.67;;;;;;;;;;5056474;28;20206;-83
2021/05/23 03:03:21;;;;;;;5.33;4.63;;;;;;;;;;5056154;28;20176;-83
2021/05/23 03:05:48;;;;;;;6.10;4.43;;;;;;;;;;5056048;28;20199;-83
2021/05/23 03:08:13;;;;;;;7.73;4.90;;;;;;;;;;5055966;28;20168;-83
2021/05/23 03:10:42;;;;;;;5.13;4.47;;;;;;;;;;5055923;28;20639;-83
2021/05/23 03:13:08;;;;;;;6.37;4.90;;;;;;;;;;5056405;28;20180;-83
2021/05/23 03:15:34;;;;;;;6.20;4.87;;;;;;;;;;5055913;28;20643;-83
2021/05/23 03:18:00;;;;;;;5.77;5.03;;;;;;;;;;5056171;28;20204;-83
2021/05/23 03:20:26;;;;;;;7.77;4.70;;;;;;;;;;5055639;28;20513;-84
2021/05/23 03:22:53;;;;;;;7.40;5.17;;;;;;;;;;5055129;28;20206;-83
2021/05/23 03:25:19;;;;;;;7.20;4.93;;;;;;;;;;5056196;28;20172;-83
2021/05/23 03:27:44;;;;;;;7.33;5.03;;;;;;;;;;5055795;28;20651;-83
2021/05/23 03:30:11;;;;;;;7.63;5.07;;;;;;;;;;5055605;28;20199;-83
2021/05/23 03:32:37;;;;;;;7.37;5.10;;;;;;;;;;5056195;28;20172;-83
2021/05/23 03:35:03;;;;;;;6.70;5.33;;;;;;;;;;5056215;28;20489;-83
2021/05/23 03:37:29;;;;;;;10.13;5.37;;;;;;;;;;5055320;28;20204;-83
2021/05/23 03:39:54;;;;;;;8.33;5.60;;;;;;;;;;5055588;28;20191;-83
2021/05/23 03:42:19;;;;;;;7.90;5.57;;;;;;;;;;5055319;28;20171;-83
2021/05/23 03:44:45;;;;;;;6.10;5.50;;;;;;;;;;5055886;28;20172;-83
2021/05/23 03:47:10;;;;;;;5.30;4.80;;;;;;;;;;5055853;28;20263;-83
2021/05/23 03:49:38;;;;;;;7.63;5.57;;;;;;;;;;5055771;28;20247;-83
2021/05/23 03:52:12;;;;;;;9.27;5.63;;;;;;;;;;5055352;28;20176;-83
2021/05/23 03:54:37;;;;;;;8.80;5.60;;;;;;;;;;5055371;28;20588;-84
2021/05/23 03:57:05;;;;;;;7.47;5.40;;;;;;;;;;5055205;28;20214;-84
2021/05/23 03:59:31;;;;;;;7.60;5.60;;;;;;;;;;5055078;28;20175;-83
2021/05/23 04:01:57;;;;;;;10.60;5.57;;;;;;;;;;5055460;28;20168;-83
2021/05/23 04:04:23;;;;;;;7.63;5.47;;;;;;;;;;5055472;28;20203;-84
2021/05/23 04:06:49;;;;;;;6.37;5.33;;;;;;;;;;5055234;28;20179;-84
2021/05/23 04:09:17;;;;;;;5.87;5.10;;;;;;;;;;5055097;28;20535;-84
2021/05/23 04:11:45;;;;;;;6.00;4.60;;;;;;;;;;5055251;28;20275;-84
2021/05/23 04:14:11;;;;;;;6.28;4.88;;;;;;;;;;5054627;28;20219;-85
2021/05/23 04:16:36;;;;;;;6.88;4.70;;;;;;;;;;5054689;28;20736;-85
2021/05/23 04:19:02;;;;;;;6.43;5.43;;;;;;;;;;5054861;28;20176;-85
2021/05/23 04:21:27;;;;;;;5.45;4.75;;;;;;;;;;5054790;28;20219;-85
2021/05/23 04:23:52;;;;;;;5.35;4.85;;;;;;;;;;5054592;28;20190;-85
2021/05/23 04:26:18;;;;;;;5.38;4.88;;;;;;;;;;5054542;28;20179;-85
2021/05/23 04:28:43;;;;;;;5.35;4.85;;;;;;;;;;5054325;28;20235;-85
2021/05/23 04:31:08;;;;;;;5.22;4.72;;;;;;;;;;5054334;28;20227;-85
2021/05/23 04:33:34;;;;;;;6.95;4.85;;;;;;;;;;5053711;28;20198;-85
2021/05/23 04:35:59;;;;;;;5.25;4.65;;;;;;;;;;5055252;28;20196;-87
2021/05/23 04:38:25;;;;;;;5.13;4.63;;;;;;;;;;5053017;28;20208;-86
2021/05/23 04:40:51;;;;;;;5.72;4.85;;;;;;;;;;5054598;28;20255;-87
2021/05/23 04:43:16;;;;;;;7.07;5.30;;;;;;;;;;5054486;28;20163;-87
2021/05/23 04:45:41;;;;;;;6.00;4.90;;;;;;;;;;5054413;28;20532;-84
2021/05/23 04:48:07;;;;;;;5.15;4.68;;;;;;;;;;5054054;28;20286;-85
2021/05/23 04:50:32;;;;;;;5.22;4.72;;;;;;;;;;5054288;28;20592;-85
2021/05/23 04:52:58;;;;;;;5.00;4.50;;;;;;;;;;5054508;28;20262;-84
2021/05/23 04:55:23;;;;;;;4.95;4.30;;;;;;;;;;5054414;28;20620;-85
2021/05/23 04:57:49;;;;;;;4.50;4.10;;;;;;;;;;5054308;28;20520;-85
2021/05/23 05:00:15;;;;;;;4.75;4.20;;;;;;;;;;5054171;28;20637;-85
2021/05/23 05:02:41;;;;;;;4.70;4.30;;;;;;;;;;5053896;28;20544;-85
2021/05/23 05:05:08;;;;;;;5.15;4.30;;;;;;;;;;5054138;28;20175;-85
2021/05/23 05:07:33;;;;;;;5.00;4.60;;;;;;;;;;5054060;28;20179;-85
2021/05/23 05:09:59;;;;;;;4.95;4.55;;;;;;;;;;5053956;28;20251;-85
2021/05/23 05:12:24;;;;;;;4.80;4.40;;;;;;;;;;5054000;28;20174;-85
2021/05/23 05:14:49;;;;;;;5.50;4.45;;;;;;;;;;5054139;28;20172;-84
2021/05/23 05:17:15;;;;;;;4.75;4.35;;;;;;;;;;5053917;28;20199;-84
2021/05/23 05:19:40;;;;;;;4.57;4.28;;;;;;;;;;5054283;28;20183;-84
2021/05/23 05:22:06;;;;;;;5.18;4.68;;;;;;;;;;5054164;28;20174;-84
2021/05/23 05:24:31;;;;;;;4.75;4.30;;;;;;;;;;5053485;28;20175;-84
2021/05/23 05:26:57;;;;;;;4.68;4.28;;;;;;;;;;5053954;28;20237;-84
2021/05/23 05:29:23;;;;;;;4.60;4.20;;;;;;;;;;5053441;28;20171;-84
2021/05/23 05:31:48;;;;;;;4.28;3.85;;;;;;;;;;5053964;28;20683;-85
2021/05/23 05:34:13;;;;;;;4.20;3.90;;;;;;;;;;5053408;28;20182;-84
2021/05/23 05:36:39;;;;;;;4.40;4.00;;;;;;;;;;5053663;28;20203;-85
2021/05/23 05:39:05;;;;;;;5.13;4.60;;;;;;;;;;5053902;28;20178;-85
2021/05/23 05:41:31;;;;;;;4.20;3.80;;;;;;;;;;5053335;28;20182;-86
2021/05/23 05:43:56;;;;;;;4.00;3.70;;;;;;;;;;5054163;28;20167;-85
2021/05/23 05:46:21;;;;;;;4.30;3.95;;;;;;;;;;5057698;28;20220;-86
2021/05/23 05:48:47;;;;;;;4.60;4.20;;;;;;;;;;5058008;28;20163;-86
2021/05/23 05:51:12;;;;;;;4.00;3.70;;;;;;;;;;5057908;28;20171;-86
2021/05/23 05:53:37;;;;;;;4.13;3.83;;;;;;;;;;5057960;28;20254;-86
2021/05/23 05:56:03;;;;;;;4.10;3.70;;;;;;;;;;5057640;28;20290;-86
2021/05/23 05:58:28;;;;;;;3.72;3.42;;;;;;;;;;5057906;28;20246;-86
2021/05/23 06:00:54;;;;;;;4.13;3.83;;;;;;;;;;5057870;28;20278;-86
2021/05/23 06:03:19;;;;;;;5.28;3.67;;;;;;;;;;5057858;28;20171;-85
2021/05/23 06:05:44;;;;;;;3.45;3.25;;;;;;;;;;5057411;28;20171;-86
2021/05/23 06:08:10;;;;;;;3.85;3.53;;;;;;;;;;5058090;28;20493;-86
2021/05/23 06:10:35;;;;;;;4.20;3.83;;;;;;;;;;5057505;28;20604;-86
2021/05/23 06:13:01;;;;;;;4.55;3.75;;;;;;;;;;5057058;28;20254;-86
2021/05/23 06:15:27;;;;;;;3.60;3.30;;;;;;;;;;5057784;28;20178;-87
2021/05/23 06:17:52;;;;;;;4.03;3.67;;;;;;;;;;5056865;28;20167;-86
2021/05/23 06:20:17;;;;;;;4.07;3.78;;;;;;;;;;5057235;28;20175;-86
2021/05/23 06:22:43;;;;;;;4.20;3.90;;;;;;;;;;5057658;28;20208;-86
2021/05/23 06:25:08;;;;;;;3.83;3.50;;;;;;;;;;5056819;28;20649;-86
2021/05/23 06:27:35;;;;;;;5.13;4.07;;;;;;;;;;5056900;28;20194;-85
2021/05/23 06:30:00;;;;;;;4.40;4.00;;;;;;;;;;5056993;28;20163;-86
2021/05/23 06:32:25;;;;;;;3.95;3.60;;;;;;;;;;5056644;28;20163;-86
2021/05/23 06:34:51;;;;;;;3.80;3.40;;;;;;;;;;5057437;28;20198;-86
2021/05/23 06:37:16;;;;;;;4.30;3.50;;;;;;;;;;5056769;28;20227;-86
2021/05/23 06:39:42;;;;;;;3.50;3.20;;;;;;;;;;5056830;28;20619;-86
2021/05/23 06:42:07;;;;;;;3.55;3.28;;;;;;;;;;5056740;28;20175;-86
2021/05/23 06:44:32;;;;;;;3.70;3.40;;;;;;;;;;5055417;28;20178;-87
2021/05/23 06:46:58;;;;;;;4.15;3.17;;;;;;;;;;5057013;28;20175;-87
2021/05/23 06:49:23;;;;;;;3.72;3.10;;;;;;;;;;5056999;28;20167;-87
2021/05/23 06:51:49;;;;;;;4.63;3.33;;;;;;;;;;5056664;28;20254;-87
2021/05/23 06:54:14;;;;;;;8.77;3.38;;;;;;;;;;5056800;28;20167;-87
2021/05/23 06:56:39;;;;;;;5.60;3.05;;;;;;;;;;5055398;28;20267;-87
2021/05/23 06:59:06;;;;;;;3.00;2.70;;;;;;;;;;5056625;28;20183;-87
2021/05/23 07:01:31;;;;;;;3.08;2.88;;;;;;;;;;5056356;28;20163;-86
2021/05/23 07:03:57;;;;;;;3.40;3.10;;;;;;;;;;5056934;28;20282;-86
2021/05/23 07:06:22;;;;;;;3.00;2.80;;;;;;;;;;5056098;28;20194;-86
2021/05/23 07:08:48;;;;;;;2.65;2.45;;;;;;;;;;5054983;28;20186;-86
2021/05/23 07:11:13;;;;;;;2.90;2.60;;;;;;;;;;5056522;28;20213;-87
2021/05/23 07:13:38;;;;;;;4.57;2.53;;;;;;;;;;5056828;28;20176;-86
2021/05/23 07:16:04;;;;;;;2.65;2.45;;;;;;;;;;5056299;28;20198;-86
2021/05/23 07:18:29;;;;;;;3.38;2.40;;;;;;;;;;5056534;28;20231;-85
2021/05/23 07:20:59;;;;;;;2.72;2.40;;;;;;;;;;5056021;28;20240;-85
2021/05/23 07:23:24;;;;;;;2.40;2.20;;;;;;;;;;5064291;28;20186;-85
2021/05/23 07:25:49;;;;;;;2.50;2.30;;;;;;;;;;5077020;28;20190;-84
2021/05/23 07:28:15;;;;;;;2.30;2.20;;;;;;;;;;5069847;28;20198;-83
2021/05/23 07:30:40;;;;;;;3.28;2.30;;;;;;;;;;5057730;28;20227;-84
2021/05/23 07:33:05;;;;;;;2.38;2.28;;;;;;;;;;5056334;28;20186;-85
2021/05/23 07:35:31;;;;;;;2.30;2.10;;;;;;;;;;5056297;28;20171;-85
2021/05/23 07:37:56;;;;;;;2.33;2.13;;;;;;;;;;5055672;28;20620;-85
2021/05/23 07:40:22;;;;;;;2.03;1.92;;;;;;;;;;5055596;28;20194;-86
2021/05/23 07:42:47;;;;;;;2.20;2.00;;;;;;;;;;5055246;28;20160;-86
2021/05/23 07:45:13;;;;;;;2.47;2.28;;;;;;;;;;5055718;28;20612;-85
2021/05/23 07:47:38;;;;;;;2.00;1.90;;;;;;;;;;5055179;28;20171;-86
2021/05/23 07:50:04;;;;;;;3.10;2.13;;;;;;;;;;5055505;28;20197;-85
2021/05/23 07:52:30;;;;;;;2.60;2.38;;;;;;;;;;5055533;28;20259;-85
2021/05/23 07:54:55;;;;;;;2.60;2.40;;;;;;;;;;5055611;28;20207;-85
2021/05/23 07:57:20;;;;;;;2.25;2.15;;;;;;;;;;5055176;28;20199;-86
2021/05/23 07:59:46;;;;;;;2.95;2.58;;;;;;;;;;5055921;28;20175;-86
2021/05/23 08:02:11;;;;;;;3.65;2.55;;;;;;;;;;5055021;28;20578;-88
2021/05/23 08:04:36;;;;;;;3.35;2.90;;;;;;;;;;5055268;28;20172;-89
2021/05/23 08:07:02;;;;;;;3.60;3.30;;;;;;;;;;5054818;28;20167;-86
2021/05/23 08:09:27;;;;;;;5.43;3.72;;;;;;;;;;5055365;28;20250;-87
2021/05/23 08:11:52;;;;;;;3.78;3.08;;;;;;;;;;5055148;28;20175;-87
2021/05/23 08:14:18;;;;;;;3.85;3.60;;;;;;;;;;5054127;28;20606;-87
2021/05/23 08:16:44;;;;;;;2.65;2.45;;;;;;;;;;5051285;28;20711;-86
2021/05/23 08:19:10;;;;;;;3.90;2.50;;;;;;;;;;5040461;28;20176;-88
2021/05/23 08:21:36;;;;;;;3.47;2.80;;;;;;;;;;5044732;28;20167;-88
2021/05/23 08:24:01;;;;;;;2.78;2.58;;;;;;;;;;5044954;28;20176;-88
2021/05/23 08:26:28;;;;;;;2.83;2.15;;;;;;;;;;5050071;28;20223;-88
2021/05/23 08:28:53;;;;;;;4.38;2.40;;;;;;;;;;5044899;28;20237;-88
2021/05/23 08:31:18;;;;;;;3.75;2.10;;;;;;;;;;5034840;28;20228;-88
2021/05/23 08:33:45;;;;;;;2.83;2.55;;;;;;;;;;5033355;28;20241;-88
2021/05/23 08:36:10;;;;;;;3.20;2.90;;;;;;;;;;5035136;28;20663;-90
2021/05/23 08:38:38;;;;;;;3.33;3.03;;;;;;;;;;5034893;28;20176;-92
2021/05/23 08:41:05;;;;;;;3.53;2.50;;;;;;;;;;5035059;28;20172;-92
2021/05/23 08:43:30;;;;;;;4.55;2.70;;;;;;;;;;5033590;28;20172;-88
2021/05/23 08:45:56;;;;;;;3.22;2.40;;;;;;;;;;5034101;28;20191;-89
2021/05/23 08:48:22;;;;;;;5.45;3.05;;;;;;;;;;5034225;28;20172;-88
2021/05/23 08:50:48;;;;;;;4.38;2.58;;;;;;;;;;5017211;28;20184;-88
2021/05/23 08:53:15;;;;;;;5.75;3.30;;;;;;;;;;5034517;28;20613;-90
2021/05/23 08:55:43;;;;;;;4.88;2.50;;;;;;;;;;5038620;28;20241;-87
2021/05/23 08:58:09;;;;;;;6.93;2.70;;;;;;;;;;5053478;28;20662;-89
2021/05/23 09:00:35;;;;;;;2.95;2.28;;;;;;;;;;5054402;28;20207;-88
2021/05/23 09:03:04;;;;;;;4.03;2.38;;;;;;;;;;5053116;28;20226;-87
2021/05/23 09:05:36;;;;;;;3.33;2.42;;;;;;;;;;5052825;28;20210;-88
2021/05/23 09:08:03;;;;;;;5.28;2.78;;;;;;;;;;5053903;28;20195;-88
2021/05/23 09:10:33;;;;;;;4.53;2.75;;;;;;;;;;5052665;28;20176;-90
2021/05/23 09:13:00;;;;;;;3.08;2.53;;;;;;;;;;5057626;28;20176;-88
2021/05/23 09:15:27;;;;;;;4.03;2.45;;;;;;;;;;5075082;28;20176;-87
2021/05/23 09:18:01;;;;;;;4.15;3.50;;;;;;;;;;5073945;28;20559;-89
2021/05/23 09:20:26;;;;;;;4.25;3.53;;;;;;;;;;5066512;28;20186;-86
2021/05/23 09:22:53;;;;;;;2.83;2.60;;;;;;;;;;5064562;28;20230;-86
2021/05/23 09:25:31;;;;;;;3.78;2.55;;;;;;;;;;5060193;28;20190;-90
2021/05/23 09:27:56;;;;;;;3.92;2.42;;;;;;;;;;5053517;28;20187;-86
2021/05/23 09:30:24;;;;;;;3.92;2.45;;;;;;;;;;5051986;28;20671;-86
2021/05/23 09:32:51;;;;;;;3.97;2.58;;;;;;;;;;5040700;28;20180;-88
2021/05/23 09:35:17;;;;;;;3.63;2.00;;;;;;;;;;5033339;28;20615;-87
2021/05/23 09:37:43;;;;;;;2.58;1.98;;;;;;;;;;5053004;28;20242;-88
2021/05/23 09:40:14;;;;;;;2.35;2.15;;;;;;;;;;5052953;28;20657;-87
2021/05/23 09:42:46;;;;;;;4.32;2.30;;;;;;;;;;5051994;28;20635;-88
2021/05/23 09:45:12;;;;;;;4.20;2.38;;;;;;;;;;5053373;28;20259;-91
2021/05/23 09:47:48;;;;;;;4.63;2.70;;;;;;;;;;5051500;28;20272;-90
2021/05/23 09:50:13;;;;;;;3.22;2.60;;;;;;;;;;5052155;28;20205;-91
2021/05/23 09:52:39;;;;;;;3.55;2.40;;;;;;;;;;5053031;28;20178;-91
2021/05/23 09:55:05;;;;;;;2.80;2.55;;;;;;;;;;5052047;28;20238;-91
2021/05/23 09:57:32;;;;;;;3.58;2.60;;;;;;;;;;5051396;28;20204;-90
2021/05/23 09:59:59;;;;;;;3.85;2.17;;;;;;;;;;5052062;28;20182;-90
2021/05/23 10:02:26;;;;;;;3.42;2.38;;;;;;;;;;5052061;28;20172;-90
2021/05/23 10:04:51;;;;;;;2.60;2.40;;;;;;;;;;5052856;28;20236;-90
2021/05/23 10:07:16;;;;;;;2.20;2.05;;;;;;;;;;5053163;28;20172;-90
2021/05/23 10:09:42;;;;;;;3.08;2.42;;;;;;;;;;5051388;28;20172;-86
2021/05/23 10:12:10;;;;;;;2.75;2.50;;;;;;;;;;5052809;28;20175;-88
2021/05/23 10:14:36;;;;;;;2.28;2.08;;;;;;;;;;5053449;28;20259;-87
2021/05/23 10:17:04;;;;;;;2.70;2.47;;;;;;;;;;5052964;28;20195;-86
2021/05/23 10:19:30;;;;;;;3.30;2.35;;;;;;;;;;5053170;28;20558;-87
2021/05/23 10:21:57;;;;;;;2.60;2.47;;;;;;;;;;5048153;28;20238;-86
2021/05/23 10:24:29;;;;;;;3.85;3.00;;;;;;;;;;5042695;28;20183;-85
2021/05/23 10:26:56;;;;;;;4.68;2.65;;;;;;;;;;5045403;28;20509;-87
2021/05/23 10:29:22;;;;;;;2.80;2.60;;;;;;;;;;5052273;28;20573;-87
2021/05/23 10:31:47;;;;;;;2.85;2.30;;;;;;;;;;5054057;28;20227;-88
2021/05/23 10:34:13;;;;;;;2.53;2.25;;;;;;;;;;5055477;28;20168;-89
2021/05/23 10:36:41;;;;;;;3.22;2.22;;;;;;;;;;5056925;28;20203;-89
2021/05/23 10:39:08;;;;;;;3.17;2.38;;;;;;;;;;5056313;28;20234;-89
2021/05/23 10:41:34;;;;;;;3.25;2.42;;;;;;;;;;5056286;28;20200;-89
2021/05/23 10:44:03;;;;;;;3.40;2.10;;;;;;;;;;5056029;28;20195;-89
2021/05/23 10:46:30;;;;;;;3.10;2.42;;;;;;;;;;5056461;28;20175;-89
2021/05/23 10:49:01;;;;;;;3.15;2.17;;;;;;;;;;5056307;28;20179;-89
2021/05/23 10:51:27;;;;;;;3.35;2.38;;;;;;;;;;5056402;28;20677;-89
2021/05/23 10:53:53;;;;;;;2.45;2.00;;;;;;;;;;5056070;28;20179;-88
2021/05/23 10:56:26;;;;;;;2.97;2.33;;;;;;;;;;5056396;28;20544;-89
2021/05/23 10:58:52;;;;;;;2.42;2.17;;;;;;;;;;5054894;28;20211;-89
2021/05/23 11:01:18;;;;;;;5.55;2.33;;;;;;;;;;5056450;28;20203;-88
2021/05/23 11:03:43;;;;;;;2.10;1.90;;;;;;;;;;5055991;28;20187;-89
2021/05/23 11:06:08;;;;;;;3.22;2.50;;;;;;;;;;5055868;28;20176;-88
2021/05/23 11:08:35;;;;;;;2.45;2.15;;;;;;;;;;5055292;28;20175;-88
2021/05/23 11:11:01;;;;;;;2.85;2.30;;;;;;;;;;5055654;28;20218;-89
2021/05/23 11:13:26;;;;;;;2.90;2.40;;;;;;;;;;5054390;28;20210;-89
2021/05/23 11:15:53;;;;;;;4.10;2.50;;;;;;;;;;5055925;28;20259;-86
2021/05/23 11:18:19;;;;;;;4.28;2.40;;;;;;;;;;5056098;28;20172;-90
2021/05/23 11:20:54;;;;;;;4.00;2.40;;;;;;;;;;5055952;28;20639;-88
2021/05/23 11:23:19;;;;;;;3.20;2.40;;;;;;;;;;5054574;28;20182;-88
2021/05/23 11:25:44;;;;;;;3.53;2.30;;;;;;;;;;5054094;28;20176;-88
2021/05/23 11:28:10;;;;;;;3.03;2.22;;;;;;;;;;5055792;28;20184;-88
2021/05/23 11:30:36;;;;;;;3.30;2.83;;;;;;;;;;5055051;28;20271;-87
2021/05/23 11:33:09;;;;;;;3.63;2.88;;;;;;;;;;5055046;28;20203;-85
2021/05/23 11:35:36;;;;;;;2.67;2.47;;;;;;;;;;5055584;28;20177;-86
2021/05/23 11:38:02;;;;;;;3.35;2.53;;;;;;;;;;5055424;28;20551;-87
2021/05/23 11:40:33;;;;;;;4.00;2.60;;;;;;;;;;5055397;28;20168;-86
2021/05/23 11:43:18;;;;;;;2.85;2.58;;;;;;;;;;5052966;28;20222;-88
2021/05/23 11:45:56;;;;;;;2.45;2.17;;;;;;;;;;5051244;28;20203;-87
2021/05/23 11:48:39;;;;;;;2.63;2.30;;;;;;;;;;5050636;28;20522;-88
2021/05/23 11:51:05;;;;;;;1.83;1.67;;;;;;;;;;5055627;28;20227;-88
2021/05/23 11:53:34;;;;;;;2.33;2.13;;;;;;;;;;5055053;28;20627;-87
2021/05/23 11:56:00;;;;;;;1.90;1.65;;;;;;;;;;5054903;28;20245;-87
2021/05/23 11:58:26;;;;;;;2.15;2.00;;;;;;;;;;5054889;28;20176;-87
2021/05/23 12:00:51;;;;;;;2.72;2.25;;;;;;;;;;5054889;28;20175;-87
2021/05/23 12:03:17;;;;;;;3.70;2.40;;;;;;;;;;5054755;28;20238;-87
2021/05/23 12:05:43;;;;;;;2.55;1.85;;;;;;;;;;5053415;28;20183;-87
2021/05/23 12:08:21;;;;;;;2.10;1.90;;;;;;;;;;5054580;28;20172;-87
2021/05/23 12:11:06;;;;;;;2.00;1.83;;;;;;;;;;5054567;28;20164;-87
2021/05/23 12:13:39;;;;;;;3.00;2.10;;;;;;;;;;5053113;28;20199;-87
2021/05/23 12:16:05;;;;;;;3.90;2.00;;;;;;;;;;5042343;28;20277;-87
2021/05/23 12:18:37;;;;;;;3.38;2.42;;;;;;;;;;5049660;28;20242;-86
2021/05/23 12:21:03;;;;;;;2.53;2.20;;;;;;;;;;5034760;28;20255;-86
2021/05/23 12:23:28;;;;;;;3.83;2.25;;;;;;;;;;5035163;28;20632;-86
2021/05/23 12:25:54;;;;;;;2.13;2.00;;;;;;;;;;5034268;28;20247;-86
2021/05/23 12:28:19;;;;;;;3.33;1.88;;;;;;;;;;5036415;28;20207;-85
2021/05/23 12:30:45;;;;;;;3.13;1.67;;;;;;;;;;5050611;28;20231;-86
2021/05/23 12:33:10;;;;;;;2.92;1.95;;;;;;;;;;5052678;28;20199;-85
2021/05/23 12:35:37;;;;;;;2.95;2.00;;;;;;;;;;5052984;28;20186;-87
2021/05/23 12:38:04;;;;;;;3.05;1.60;;;;;;;;;;5054176;28;20235;-85
2021/05/23 12:40:34;;;;;;;2.00;1.77;;;;;;;;;;5051353;28;20590;-86
2021/05/23 12:43:09;;;;;;;1.88;1.77;;;;;;;;;;5053975;28;20178;-86
2021/05/23 12:45:34;;;;;;;2.63;1.60;;;;;;;;;;5053665;28;20620;-85
2021/05/23 12:48:05;;;;;;;2.95;2.08;;;;;;;;;;5053808;28;20164;-85
2021/05/23 12:50:34;;;;;;;2.88;2.08;;;;;;;;;;5053843;28;20182;-87
2021/05/23 12:53:00;;;;;;;2.88;2.05;;;;;;;;;;5053976;28;20168;-86
2021/05/23 12:55:27;;;;;;;3.22;2.03;;;;;;;;;;5051772;28;20182;-87
2021/05/23 12:57:52;;;;;;;3.85;2.50;;;;;;;;;;5052106;28;20561;-86
2021/05/23 13:00:19;;;;;;;4.03;2.10;;;;;;;;;;5053802;28;20175;-85
2021/05/23 13:02:44;;;;;;;2.38;2.17;;;;;;;;;;5052505;28;20176;-86
2021/05/23 13:05:14;;;;;;;4.00;2.47;;;;;;;;;;5054223;28;20501;-86
2021/05/23 13:07:39;;;;;;;2.65;2.15;;;;;;;;;;5052210;28;20191;-85
2021/05/23 13:10:14;;;;;;;2.90;2.30;;;;;;;;;;5042209;28;20570;-85
2021/05/23 13:12:40;;;;;;;2.87;2.60;;;;;;;;;;5042165;28;20168;-85
2021/05/23 13:15:06;;;;;;;2.67;2.40;;;;;;;;;;5040188;28;20230;-85
2021/05/23 13:17:40;;;;;;;3.90;2.40;;;;;;;;;;5042779;28;20227;-89
2021/05/23 13:20:06;;;;;;;3.50;2.20;;;;;;;;;;5042906;28;20174;-88
2021/05/23 13:22:33;;;;;;;2.63;2.27;;;;;;;;;;5036863;28;20272;-88
2021/05/23 13:25:04;;;;;;;2.50;2.20;;;;;;;;;;5045542;28;20168;-88
2021/05/23 13:27:29;;;;;;;3.13;2.20;;;;;;;;;;5045921;28;20594;-88
2021/05/23 13:29:54;;;;;;;8.13;2.60;;;;;;;;;;5035565;28;20169;-88
2021/05/23 13:32:19;;;;;;;2.13;1.93;;;;;;;;;;5043147;28;20258;-86
2021/05/23 13:34:45;;;;;;;4.23;2.10;;;;;;;;;;5044028;28;20632;-86
2021/05/23 13:37:10;;;;;;;4.17;2.43;;;;;;;;;;5041758;28;20203;-87
2021/05/23 13:39:37;;;;;;;3.27;2.30;;;;;;;;;;5040589;28;20164;-86
2021/05/23 13:42:02;;;;;;;2.63;1.97;;;;;;;;;;5042366;28;20230;-85
2021/05/23 13:44:28;;;;;;;3.07;2.20;;;;;;;;;;5042527;28;20164;-85
2021/05/23 13:46:53;;;;;;;2.40;2.20;;;;;;;;;;5041444;28;20175;-85
2021/05/23 13:49:19;;;;;;;4.70;2.07;;;;;;;;;;5041885;28;20629;-85
2021/05/23 13:51:45;;;;;;;4.40;2.20;;;;;;;;;;5040187;28;20175;-86
2021/05/23 13:54:11;;;;;;;2.03;1.90;;;;;;;;;;5041305;28;20570;-85
2021/05/23 13:56:39;;;;;;;3.00;2.30;;;;;;;;;;5041704;28;20199;-85
2021/05/23 13:59:07;;;;;;;3.00;2.53;;;;;;;;;;5044412;28;20313;-85
2021/05/23 14:01:34;;;;;;;4.23;2.50;;;;;;;;;;5042454;28;20168;-85
2021/05/23 14:03:59;;;;;;;2.80;2.20;;;;;;;;;;5048479;28;20565;-84
2021/05/23 14:06:25;;;;;;;2.15;1.95;;;;;;;;;;5050151;28;20168;-84
2021/05/23 14:08:50;;;;;;;3.03;2.10;;;;;;;;;;5053777;28;20568;-85
2021/05/23 14:11:16;;;;;;;2.60;2.40;;;;;;;;;;5054344;28;20176;-84
2021/05/23 14:13:41;;;;;;;2.50;2.30;;;;;;;;;;5054065;28;20177;-84
2021/05/23 14:16:07;;;;;;;4.67;2.37;;;;;;;;;;5054474;28;20326;-85
2021/05/23 14:18:38;;;;;;;2.87;1.87;;;;;;;;;;5053160;28;20183;-86
2021/05/23 14:21:04;;;;;;;3.03;2.13;;;;;;;;;;5071004;28;20172;-84
2021/05/23 14:23:30;;;;;;;3.17;2.60;;;;;;;;;;5048016;28;20179;-85
2021/05/23 14:25:56;;;;;;;2.70;2.07;;;;;;;;;;5049157;28;20175;-87
2021/05/23 14:28:21;;;;;;;2.47;1.93;;;;;;;;;;5047364;28;20268;-85
2021/05/23 14:30:47;;;;;;;4.03;2.27;;;;;;;;;;5045040;28;20258;-85
2021/05/23 14:33:12;;;;;;;3.47;2.60;;;;;;;;;;5055858;28;20576;-86
2021/05/23 14:35:37;;;;;;;2.30;2.10;;;;;;;;;;5056161;28;20233;-87
2021/05/23 14:38:03;;;;;;;2.37;2.10;;;;;;;;;;5056302;28;20555;-86